sensor_id;sensor_type;location;lat;lon;timestamp;temperature;humidity
74901;DHT22;63461;51.416;6.758;2023-04-12T00:00:31;11.10;99.90
74901;DHT22;63461;51.416;6.758;2023-04-12T00:03:07;11.00;99.90
74901;DHT22;63461;51.416;6.758;2023-04-12T00:05:37;11.00;99.90
74901;DHT22;63461;51.416;6.758;2023-04-12T00:13:06;11.00;99.90
74901;DHT22;63461;51.416;6.758;2023-04-12T00:17:02;10.90;99.90
74901;DHT22;63461;51.416;6.758;2023-04-12T00:20:25;10.80;99.90
74901;DHT22;63461;51.416;6.758;2023-04-12T00:22:51;10.70;99.90
74901;DHT22;63461;51.416;6.758;2023-04-12T00:25:31;10.70;99.90
74901;DHT22;63461;51.416;6.758;2023-04-12T00:27:57;10.70;99.90
74901;DHT22;63461;51.416;6.758;2023-04-12T00:30:50;10.70;99.90
74901;DHT22;63461;51.416;6.758;2023-04-12T00:33:16;10.70;99.90
74901;DHT22;63461;51.416;6.758;2023-04-12T00:35:42;10.60;99.90
74901;DHT22;63461;51.416;6.758;2023-04-12T00:38:11;10.50;99.90
74901;DHT22;63461;51.416;6.758;2023-04-12T00:40:51;10.60;99.90
74901;DHT22;63461;51.416;6.758;2023-04-12T00:43:17;10.60;99.90
74901;DHT22;63461;51.416;6.758;2023-04-12T00:45:55;10.70;99.90
74901;DHT22;63461;51.416;6.758;2023-04-12T00:48:25;10.60;99.90
74901;DHT22;63461;51.416;6.758;2023-04-12T00:50:52;10.60;99.90
74901;DHT22;63461;51.416;6.758;2023-04-12T00:53:20;10.60;99.90
74901;DHT22;63461;51.416;6.758;2023-04-12T00:55:50;10.60;99.90
74901;DHT22;63461;51.416;6.758;2023-04-12T00:58:21;10.60;99.90
74901;DHT22;63461;51.416;6.758;2023-04-12T01:00:49;10.60;99.90
74901;DHT22;63461;51.416;6.758;2023-04-12T01:03:21;10.60;99.90
74901;DHT22;63461;51.416;6.758;2023-04-12T01:06:54;10.60;99.90
74901;DHT22;63461;51.416;6.758;2023-04-12T01:11:44;10.60;99.90
74901;DHT22;63461;51.416;6.758;2023-04-12T01:14:32;10.60;99.90
74901;DHT22;63461;51.416;6.758;2023-04-12T01:17:04;10.50;99.90
74901;DHT22;63461;51.416;6.758;2023-04-12T01:28:11;10.50;99.90
74901;DHT22;63461;51.416;6.758;2023-04-12T01:30:38;10.50;99.90
74901;DHT22;63461;51.416;6.758;2023-04-12T01:33:08;10.40;99.90
74901;DHT22;63461;51.416;6.758;2023-04-12T01:35:36;10.30;99.90
74901;DHT22;63461;51.416;6.758;2023-04-12T01:38:03;10.40;99.90
74901;DHT22;63461;51.416;6.758;2023-04-12T01:40:30;10.40;99.90
74901;DHT22;63461;51.416;6.758;2023-04-12T01:45:32;10.40;99.90
74901;DHT22;63461;51.416;6.758;2023-04-12T01:47:59;10.40;99.90
74901;DHT22;63461;51.416;6.758;2023-04-12T01:50:38;10.40;99.90
74901;DHT22;63461;51.416;6.758;2023-04-12T01:53:12;10.20;99.90
74901;DHT22;63461;51.416;6.758;2023-04-12T01:55:40;10.30;99.90
74901;DHT22;63461;51.416;6.758;2023-04-12T01:58:11;10.30;99.90
74901;DHT22;63461;51.416;6.758;2023-04-12T02:00:38;10.40;99.90
74901;DHT22;63461;51.416;6.758;2023-04-12T02:03:05;10.30;99.90
74901;DHT22;63461;51.416;6.758;2023-04-12T02:05:32;10.30;99.90
74901;DHT22;63461;51.416;6.758;2023-04-12T02:08:01;10.20;99.90
74901;DHT22;63461;51.416;6.758;2023-04-12T02:10:30;10.30;99.90
74901;DHT22;63461;51.416;6.758;2023-04-12T02:13:00;10.20;99.90
74901;DHT22;63461;51.416;6.758;2023-04-12T02:15:29;10.20;99.90
74901;DHT22;63461;51.416;6.758;2023-04-12T02:17:55;10.20;99.90
74901;DHT22;63461;51.416;6.758;2023-04-12T02:20:24;10.20;99.90
74901;DHT22;63461;51.416;6.758;2023-04-12T02:22:50;10.20;99.90
74901;DHT22;63461;51.416;6.758;2023-04-12T02:25:16;10.10;99.90
74901;DHT22;63461;51.416;6.758;2023-04-12T02:27:43;10.10;99.90
74901;DHT22;63461;51.416;6.758;2023-04-12T02:30:10;10.10;99.90
74901;DHT22;63461;51.416;6.758;2023-04-12T02:32:36;10.00;99.90
74901;DHT22;63461;51.416;6.758;2023-04-12T02:35:18;10.00;99.90
74901;DHT22;63461;51.416;6.758;2023-04-12T02:37:47;10.10;99.90
74901;DHT22;63461;51.416;6.758;2023-04-12T02:40:14;10.10;99.90
74901;DHT22;63461;51.416;6.758;2023-04-12T02:42:41;10.10;99.90
74901;DHT22;63461;51.416;6.758;2023-04-12T02:45:11;9.90;99.90
74901;DHT22;63461;51.416;6.758;2023-04-12T02:47:38;9.90;99.90
74901;DHT22;63461;51.416;6.758;2023-04-12T02:50:08;10.00;99.90
74901;DHT22;63461;51.416;6.758;2023-04-12T02:52:59;10.00;99.90
74901;DHT22;63461;51.416;6.758;2023-04-12T02:55:31;10.00;99.90
74901;DHT22;63461;51.416;6.758;2023-04-12T02:58:02;10.00;99.90
74901;DHT22;63461;51.416;6.758;2023-04-12T03:00:34;10.00;99.90
74901;DHT22;63461;51.416;6.758;2023-04-12T03:03:00;9.90;99.90
74901;DHT22;63461;51.416;6.758;2023-04-12T03:05:29;10.00;99.90
74901;DHT22;63461;51.416;6.758;2023-04-12T03:07:55;10.00;99.90
74901;DHT22;63461;51.416;6.758;2023-04-12T03:10:50;9.90;99.90
74901;DHT22;63461;51.416;6.758;2023-04-12T03:13:16;9.90;99.90
74901;DHT22;63461;51.416;6.758;2023-04-12T03:15:46;9.90;99.90
74901;DHT22;63461;51.416;6.758;2023-04-12T03:18:12;9.90;99.90
74901;DHT22;63461;51.416;6.758;2023-04-12T03:20:45;9.80;99.90
74901;DHT22;63461;51.416;6.758;2023-04-12T03:23:11;9.90;99.90
74901;DHT22;63461;51.416;6.758;2023-04-12T03:25:42;9.80;99.90
74901;DHT22;63461;51.416;6.758;2023-04-12T03:28:29;9.80;99.90
74901;DHT22;63461;51.416;6.758;2023-04-12T03:30:55;9.90;99.90
74901;DHT22;63461;51.416;6.758;2023-04-12T03:33:26;9.80;99.90
74901;DHT22;63461;51.416;6.758;2023-04-12T03:35:57;9.80;99.90
74901;DHT22;63461;51.416;6.758;2023-04-12T03:38:23;9.90;99.90
74901;DHT22;63461;51.416;6.758;2023-04-12T03:40:49;9.90;99.90
74901;DHT22;63461;51.416;6.758;2023-04-12T03:43:24;9.80;99.90
74901;DHT22;63461;51.416;6.758;2023-04-12T03:45:51;9.90;99.90
74901;DHT22;63461;51.416;6.758;2023-04-12T03:48:16;10.00;99.90
74901;DHT22;63461;51.416;6.758;2023-04-12T03:50:42;10.00;99.90
74901;DHT22;63461;51.416;6.758;2023-04-12T03:53:13;9.90;99.90
74901;DHT22;63461;51.416;6.758;2023-04-12T03:55:42;9.90;99.90
74901;DHT22;63461;51.416;6.758;2023-04-12T03:58:08;9.90;99.90
74901;DHT22;63461;51.416;6.758;2023-04-12T04:00:41;10.00;99.90
74901;DHT22;63461;51.416;6.758;2023-04-12T04:03:08;10.00;99.90
74901;DHT22;63461;51.416;6.758;2023-04-12T04:05:41;9.90;99.90
74901;DHT22;63461;51.416;6.758;2023-04-12T04:08:07;10.00;99.90
74901;DHT22;63461;51.416;6.758;2023-04-12T04:10:47;10.00;99.90
74901;DHT22;63461;51.416;6.758;2023-04-12T04:13:13;9.90;99.90
74901;DHT22;63461;51.416;6.758;2023-04-12T04:15:39;9.90;99.90
74901;DHT22;63461;51.416;6.758;2023-04-12T04:18:05;9.80;99.90
74901;DHT22;63461;51.416;6.758;2023-04-12T04:20:30;9.90;99.90
74901;DHT22;63461;51.416;6.758;2023-04-12T04:22:57;9.90;99.90
74901;DHT22;63461;51.416;6.758;2023-04-12T04:25:24;9.90;99.90
74901;DHT22;63461;51.416;6.758;2023-04-12T04:27:55;9.80;99.90
74901;DHT22;63461;51.416;6.758;2023-04-12T04:30:25;9.90;99.90
74901;DHT22;63461;51.416;6.758;2023-04-12T04:32:51;9.90;99.90
74901;DHT22;63461;51.416;6.758;2023-04-12T04:35:20;9.90;99.90
74901;DHT22;63461;51.416;6.758;2023-04-12T04:38:09;10.00;99.90
74901;DHT22;63461;51.416;6.758;2023-04-12T04:40:36;9.90;99.90
74901;DHT22;63461;51.416;6.758;2023-04-12T04:43:03;9.90;99.90
74901;DHT22;63461;51.416;6.758;2023-04-12T04:45:34;9.90;99.90
74901;DHT22;63461;51.416;6.758;2023-04-12T04:48:00;9.90;99.90
74901;DHT22;63461;51.416;6.758;2023-04-12T04:50:29;9.80;99.90
74901;DHT22;63461;51.416;6.758;2023-04-12T04:53:00;9.90;99.90
74901;DHT22;63461;51.416;6.758;2023-04-12T04:55:31;9.80;99.90
74901;DHT22;63461;51.416;6.758;2023-04-12T04:57:57;9.80;99.90
74901;DHT22;63461;51.416;6.758;2023-04-12T05:00:23;9.90;99.90
74901;DHT22;63461;51.416;6.758;2023-04-12T05:02:54;9.90;99.90
74901;DHT22;63461;51.416;6.758;2023-04-12T05:05:26;9.80;99.90
74901;DHT22;63461;51.416;6.758;2023-04-12T05:08:04;9.80;99.90
74901;DHT22;63461;51.416;6.758;2023-04-12T05:10:33;9.70;99.90
74901;DHT22;63461;51.416;6.758;2023-04-12T05:13:01;9.70;99.90
74901;DHT22;63461;51.416;6.758;2023-04-12T05:15:29;9.70;99.90
74901;DHT22;63461;51.416;6.758;2023-04-12T05:17:55;9.60;99.90
74901;DHT22;63461;51.416;6.758;2023-04-12T05:20:21;9.70;99.90
74901;DHT22;63461;51.416;6.758;2023-04-12T05:22:47;9.70;99.90
74901;DHT22;63461;51.416;6.758;2023-04-12T05:25:13;9.60;99.90
74901;DHT22;63461;51.416;6.758;2023-04-12T05:27:46;9.50;99.90
74901;DHT22;63461;51.416;6.758;2023-04-12T05:30:15;9.60;99.90
74901;DHT22;63461;51.416;6.758;2023-04-12T05:32:41;9.70;99.90
74901;DHT22;63461;51.416;6.758;2023-04-12T05:35:08;9.70;99.90
74901;DHT22;63461;51.416;6.758;2023-04-12T05:37:36;9.70;99.90
74901;DHT22;63461;51.416;6.758;2023-04-12T05:40:01;9.70;99.90
74901;DHT22;63461;51.416;6.758;2023-04-12T05:42:29;9.70;99.90
74901;DHT22;63461;51.416;6.758;2023-04-12T05:44:57;9.70;99.90
74901;DHT22;63461;51.416;6.758;2023-04-12T05:47:23;9.70;99.90
74901;DHT22;63461;51.416;6.758;2023-04-12T05:49:49;9.80;99.90
74901;DHT22;63461;51.416;6.758;2023-04-12T05:52:17;9.80;99.90
74901;DHT22;63461;51.416;6.758;2023-04-12T05:54:42;9.80;99.90
74901;DHT22;63461;51.416;6.758;2023-04-12T05:57:13;9.90;99.90
74901;DHT22;63461;51.416;6.758;2023-04-12T05:59:40;9.90;99.90
74901;DHT22;63461;51.416;6.758;2023-04-12T06:02:06;9.90;99.90
74901;DHT22;63461;51.416;6.758;2023-04-12T06:04:32;9.70;99.90
74901;DHT22;63461;51.416;6.758;2023-04-12T06:06:58;9.70;99.90
74901;DHT22;63461;51.416;6.758;2023-04-12T06:09:23;9.80;99.90
74901;DHT22;63461;51.416;6.758;2023-04-12T06:11:49;9.70;99.90
74901;DHT22;63461;51.416;6.758;2023-04-12T06:14:16;9.60;99.90
74901;DHT22;63461;51.416;6.758;2023-04-12T06:16:44;9.60;99.90
74901;DHT22;63461;51.416;6.758;2023-04-12T06:19:10;9.70;99.90
74901;DHT22;63461;51.416;6.758;2023-04-12T06:21:35;9.90;99.90
74901;DHT22;63461;51.416;6.758;2023-04-12T06:24:02;9.90;99.90
74901;DHT22;63461;51.416;6.758;2023-04-12T06:26:28;9.90;99.90
74901;DHT22;63461;51.416;6.758;2023-04-12T06:28:54;9.80;99.90
74901;DHT22;63461;51.416;6.758;2023-04-12T06:31:20;9.90;99.90
74901;DHT22;63461;51.416;6.758;2023-04-12T06:33:46;10.00;99.90
74901;DHT22;63461;51.416;6.758;2023-04-12T06:36:12;10.10;99.90
74901;DHT22;63461;51.416;6.758;2023-04-12T06:38:40;9.90;99.90
74901;DHT22;63461;51.416;6.758;2023-04-12T06:41:06;10.00;99.90
74901;DHT22;63461;51.416;6.758;2023-04-12T06:43:32;10.00;99.90
74901;DHT22;63461;51.416;6.758;2023-04-12T06:45:58;10.10;99.90
74901;DHT22;63461;51.416;6.758;2023-04-12T06:48:27;10.00;99.90
74901;DHT22;63461;51.416;6.758;2023-04-12T06:50:53;10.00;99.90
74901;DHT22;63461;51.416;6.758;2023-04-12T06:53:19;10.00;99.90
74901;DHT22;63461;51.416;6.758;2023-04-12T06:55:45;9.90;99.90
74901;DHT22;63461;51.416;6.758;2023-04-12T06:58:10;9.90;99.90
74901;DHT22;63461;51.416;6.758;2023-04-12T07:00:36;10.10;99.90
74901;DHT22;63461;51.416;6.758;2023-04-12T07:03:02;10.10;99.90
74901;DHT22;63461;51.416;6.758;2023-04-12T07:05:28;9.90;99.90
74901;DHT22;63461;51.416;6.758;2023-04-12T07:07:54;10.00;99.90
74901;DHT22;63461;51.416;6.758;2023-04-12T07:10:19;10.10;99.90
74901;DHT22;63461;51.416;6.758;2023-04-12T07:12:45;10.10;99.90
74901;DHT22;63461;51.416;6.758;2023-04-12T07:15:11;10.10;99.90
74901;DHT22;63461;51.416;6.758;2023-04-12T07:17:39;10.20;99.90
74901;DHT22;63461;51.416;6.758;2023-04-12T07:20:05;10.20;99.90
74901;DHT22;63461;51.416;6.758;2023-04-12T07:22:31;10.20;99.90
74901;DHT22;63461;51.416;6.758;2023-04-12T07:24:57;10.40;99.90
74901;DHT22;63461;51.416;6.758;2023-04-12T07:27:23;10.30;99.90
74901;DHT22;63461;51.416;6.758;2023-04-12T07:29:50;10.30;99.90
74901;DHT22;63461;51.416;6.758;2023-04-12T07:32:17;10.50;99.90
74901;DHT22;63461;51.416;6.758;2023-04-12T07:34:43;10.30;99.90
74901;DHT22;63461;51.416;6.758;2023-04-12T07:37:09;10.40;99.90
74901;DHT22;63461;51.416;6.758;2023-04-12T07:39:35;10.40;99.90
74901;DHT22;63461;51.416;6.758;2023-04-12T07:42:01;10.40;99.90
74901;DHT22;63461;51.416;6.758;2023-04-12T07:44:28;10.30;99.90
74901;DHT22;63461;51.416;6.758;2023-04-12T07:46:55;10.40;99.90
74901;DHT22;63461;51.416;6.758;2023-04-12T07:49:21;10.30;99.90
74901;DHT22;63461;51.416;6.758;2023-04-12T07:51:49;10.20;99.90
74901;DHT22;63461;51.416;6.758;2023-04-12T07:54:18;10.20;99.90
74901;DHT22;63461;51.416;6.758;2023-04-12T07:57:07;10.30;99.90
74901;DHT22;63461;51.416;6.758;2023-04-12T07:59:33;10.40;99.90
74901;DHT22;63461;51.416;6.758;2023-04-12T08:02:11;10.30;99.90
74901;DHT22;63461;51.416;6.758;2023-04-12T08:05:41;10.20;99.90
74901;DHT22;63461;51.416;6.758;2023-04-12T08:16:15;10.60;99.90
74901;DHT22;63461;51.416;6.758;2023-04-12T08:18:41;10.60;99.90
74901;DHT22;63461;51.416;6.758;2023-04-12T08:21:17;10.40;99.90
74901;DHT22;63461;51.416;6.758;2023-04-12T08:23:46;10.60;99.90
74901;DHT22;63461;51.416;6.758;2023-04-12T08:26:12;10.70;99.90
74901;DHT22;63461;51.416;6.758;2023-04-12T08:28:44;10.60;99.90
74901;DHT22;63461;51.416;6.758;2023-04-12T08:31:10;10.80;99.90
74901;DHT22;63461;51.416;6.758;2023-04-12T08:33:36;10.90;99.90
74901;DHT22;63461;51.416;6.758;2023-04-12T08:36:02;10.90;99.90
74901;DHT22;63461;51.416;6.758;2023-04-12T08:38:28;10.90;99.90
74901;DHT22;63461;51.416;6.758;2023-04-12T08:40:53;10.70;99.90
74901;DHT22;63461;51.416;6.758;2023-04-12T08:43:20;10.60;99.90
74901;DHT22;63461;51.416;6.758;2023-04-12T08:45:48;10.80;99.90
74901;DHT22;63461;51.416;6.758;2023-04-12T08:48:15;10.80;99.90
74901;DHT22;63461;51.416;6.758;2023-04-12T08:50:43;10.80;99.90
74901;DHT22;63461;51.416;6.758;2023-04-12T08:53:09;11.00;99.90
74901;DHT22;63461;51.416;6.758;2023-04-12T08:55:35;10.90;99.90
74901;DHT22;63461;51.416;6.758;2023-04-12T08:58:02;10.90;99.90
74901;DHT22;63461;51.416;6.758;2023-04-12T09:00:33;10.90;99.90
74901;DHT22;63461;51.416;6.758;2023-04-12T09:02:59;11.00;99.90
74901;DHT22;63461;51.416;6.758;2023-04-12T09:05:29;10.90;99.90
74901;DHT22;63461;51.416;6.758;2023-04-12T09:07:56;10.70;99.90
74901;DHT22;63461;51.416;6.758;2023-04-12T09:10:33;10.80;99.90
74901;DHT22;63461;51.416;6.758;2023-04-12T09:12:59;11.50;99.90
74901;DHT22;63461;51.416;6.758;2023-04-12T09:15:25;12.00;99.90
74901;DHT22;63461;51.416;6.758;2023-04-12T09:18:05;11.40;99.90
74901;DHT22;63461;51.416;6.758;2023-04-12T09:20:33;11.30;99.90
74901;DHT22;63461;51.416;6.758;2023-04-12T09:22:59;11.10;99.90
74901;DHT22;63461;51.416;6.758;2023-04-12T09:25:38;11.10;99.90
74901;DHT22;63461;51.416;6.758;2023-04-12T09:28:17;11.20;99.90
74901;DHT22;63461;51.416;6.758;2023-04-12T09:30:46;11.20;99.90
74901;DHT22;63461;51.416;6.758;2023-04-12T09:33:37;11.40;99.90
74901;DHT22;63461;51.416;6.758;2023-04-12T09:36:04;11.40;99.90
74901;DHT22;63461;51.416;6.758;2023-04-12T09:38:32;11.50;99.90
74901;DHT22;63461;51.416;6.758;2023-04-12T09:41:20;11.50;99.90
74901;DHT22;63461;51.416;6.758;2023-04-12T09:43:59;11.50;99.90
74901;DHT22;63461;51.416;6.758;2023-04-12T09:46:31;11.40;99.90
74901;DHT22;63461;51.416;6.758;2023-04-12T09:49:01;11.50;99.90
74901;DHT22;63461;51.416;6.758;2023-04-12T09:51:32;11.50;99.90
74901;DHT22;63461;51.416;6.758;2023-04-12T09:54:00;11.70;99.90
74901;DHT22;63461;51.416;6.758;2023-04-12T09:56:35;11.70;99.90
74901;DHT22;63461;51.416;6.758;2023-04-12T09:59:05;11.70;99.90
74901;DHT22;63461;51.416;6.758;2023-04-12T10:01:37;11.80;99.90
74901;DHT22;63461;51.416;6.758;2023-04-12T10:04:06;11.80;99.90
74901;DHT22;63461;51.416;6.758;2023-04-12T10:06:32;12.00;99.90
74901;DHT22;63461;51.416;6.758;2023-04-12T10:09:01;12.10;99.90
74901;DHT22;63461;51.416;6.758;2023-04-12T10:11:29;12.10;99.90
74901;DHT22;63461;51.416;6.758;2023-04-12T10:13:55;12.10;99.90
74901;DHT22;63461;51.416;6.758;2023-04-12T10:16:25;12.10;99.90
74901;DHT22;63461;51.416;6.758;2023-04-12T10:18:51;12.20;99.90
74901;DHT22;63461;51.416;6.758;2023-04-12T10:21:19;12.30;99.90
74901;DHT22;63461;51.416;6.758;2023-04-12T10:23:45;12.40;99.90
74901;DHT22;63461;51.416;6.758;2023-04-12T10:26:14;12.60;99.90
74901;DHT22;63461;51.416;6.758;2023-04-12T10:28:45;12.80;99.90
74901;DHT22;63461;51.416;6.758;2023-04-12T10:31:34;12.70;99.90
74901;DHT22;63461;51.416;6.758;2023-04-12T10:34:06;12.60;99.90
74901;DHT22;63461;51.416;6.758;2023-04-12T10:37:17;12.40;99.90
74901;DHT22;63461;51.416;6.758;2023-04-12T10:51:23;12.00;99.90
74901;DHT22;63461;51.416;6.758;2023-04-12T10:54:40;11.70;99.90
74901;DHT22;63461;51.416;6.758;2023-04-12T10:57:42;11.80;99.90
74901;DHT22;63461;51.416;6.758;2023-04-12T11:04:21;11.60;99.90
74901;DHT22;63461;51.416;6.758;2023-04-12T11:06:59;11.70;99.90
74901;DHT22;63461;51.416;6.758;2023-04-12T11:09:42;11.80;99.90
74901;DHT22;63461;51.416;6.758;2023-04-12T11:12:26;11.70;99.90
74901;DHT22;63461;51.416;6.758;2023-04-12T11:15:01;12.00;99.90
74901;DHT22;63461;51.416;6.758;2023-04-12T11:27:33;12.40;99.90
74901;DHT22;63461;51.416;6.758;2023-04-12T11:31:32;12.60;99.90
74901;DHT22;63461;51.416;6.758;2023-04-12T11:39:32;12.70;99.90
74901;DHT22;63461;51.416;6.758;2023-04-12T11:42:43;13.20;99.90
74901;DHT22;63461;51.416;6.758;2023-04-12T11:56:34;13.30;99.90
74901;DHT22;63461;51.416;6.758;2023-04-12T11:59:03;13.10;99.90
74901;DHT22;63461;51.416;6.758;2023-04-12T12:01:57;13.20;99.90
74901;DHT22;63461;51.416;6.758;2023-04-12T12:04:31;13.60;99.90
74901;DHT22;63461;51.416;6.758;2023-04-12T12:07:51;13.50;99.90
74901;DHT22;63461;51.416;6.758;2023-04-12T12:10:41;13.70;99.90
74901;DHT22;63461;51.416;6.758;2023-04-12T12:14:50;13.50;99.90
74901;DHT22;63461;51.416;6.758;2023-04-12T12:17:18;13.60;99.90
74901;DHT22;63461;51.416;6.758;2023-04-12T12:19:45;13.50;99.90
74901;DHT22;63461;51.416;6.758;2023-04-12T12:24:44;13.60;99.90
74901;DHT22;63461;51.416;6.758;2023-04-12T12:27:12;13.40;99.90
74901;DHT22;63461;51.416;6.758;2023-04-12T12:29:39;13.10;99.90
74901;DHT22;63461;51.416;6.758;2023-04-12T12:32:11;13.20;99.90
74901;DHT22;63461;51.416;6.758;2023-04-12T12:34:40;13.40;99.90
74901;DHT22;63461;51.416;6.758;2023-04-12T12:37:20;13.40;99.90
74901;DHT22;63461;51.416;6.758;2023-04-12T12:40:10;13.50;99.90
74901;DHT22;63461;51.416;6.758;2023-04-12T12:42:54;13.70;99.90
74901;DHT22;63461;51.416;6.758;2023-04-12T12:45:22;13.80;99.90
74901;DHT22;63461;51.416;6.758;2023-04-12T12:48:02;13.80;99.90
74901;DHT22;63461;51.416;6.758;2023-04-12T12:50:30;13.90;99.90
74901;DHT22;63461;51.416;6.758;2023-04-12T12:52:57;13.90;99.90
74901;DHT22;63461;51.416;6.758;2023-04-12T12:55:30;13.60;99.90
74901;DHT22;63461;51.416;6.758;2023-04-12T12:57:57;13.40;99.90
74901;DHT22;63461;51.416;6.758;2023-04-12T13:00:24;13.50;99.90
74901;DHT22;63461;51.416;6.758;2023-04-12T13:02:51;13.60;99.90
74901;DHT22;63461;51.416;6.758;2023-04-12T13:05:18;13.80;99.90
74901;DHT22;63461;51.416;6.758;2023-04-12T13:07:44;13.90;99.90
74901;DHT22;63461;51.416;6.758;2023-04-12T13:10:11;13.90;99.90
74901;DHT22;63461;51.416;6.758;2023-04-12T13:12:37;13.70;99.90
74901;DHT22;63461;51.416;6.758;2023-04-12T13:15:04;13.60;99.90
74901;DHT22;63461;51.416;6.758;2023-04-12T13:17:30;13.50;99.90
74901;DHT22;63461;51.416;6.758;2023-04-12T13:19:56;13.50;99.90
74901;DHT22;63461;51.416;6.758;2023-04-12T13:22:22;13.40;99.90
74901;DHT22;63461;51.416;6.758;2023-04-12T13:24:48;13.20;99.90
74901;DHT22;63461;51.416;6.758;2023-04-12T13:27:15;13.30;99.90
74901;DHT22;63461;51.416;6.758;2023-04-12T13:29:41;13.40;99.90
74901;DHT22;63461;51.416;6.758;2023-04-12T13:32:09;13.50;99.90
74901;DHT22;63461;51.416;6.758;2023-04-12T13:34:35;13.40;99.90
74901;DHT22;63461;51.416;6.758;2023-04-12T13:37:04;13.20;99.90
74901;DHT22;63461;51.416;6.758;2023-04-12T13:39:30;13.30;99.90
74901;DHT22;63461;51.416;6.758;2023-04-12T13:41:57;13.10;99.90
74901;DHT22;63461;51.416;6.758;2023-04-12T13:44:23;13.00;99.90
74901;DHT22;63461;51.416;6.758;2023-04-12T13:46:54;12.60;99.90
74901;DHT22;63461;51.416;6.758;2023-04-12T13:49:21;12.30;99.90
74901;DHT22;63461;51.416;6.758;2023-04-12T13:51:47;12.30;99.90
74901;DHT22;63461;51.416;6.758;2023-04-12T13:54:15;12.30;99.90
74901;DHT22;63461;51.416;6.758;2023-04-12T13:56:42;12.40;99.90
74901;DHT22;63461;51.416;6.758;2023-04-12T13:59:11;12.20;99.90
74901;DHT22;63461;51.416;6.758;2023-04-12T14:02:03;12.60;99.90
74901;DHT22;63461;51.416;6.758;2023-04-12T14:04:30;12.70;99.90
74901;DHT22;63461;51.416;6.758;2023-04-12T14:10:44;12.30;99.90
74901;DHT22;63461;51.416;6.758;2023-04-12T14:13:16;12.40;99.90
74901;DHT22;63461;51.416;6.758;2023-04-12T14:15:44;12.40;99.90
74901;DHT22;63461;51.416;6.758;2023-04-12T14:18:13;12.20;99.90
74901;DHT22;63461;51.416;6.758;2023-04-12T14:20:40;11.90;99.90
74901;DHT22;63461;51.416;6.758;2023-04-12T14:23:06;12.00;99.90
74901;DHT22;63461;51.416;6.758;2023-04-12T14:25:38;11.70;99.90
74901;DHT22;63461;51.416;6.758;2023-04-12T14:28:06;11.70;99.90
74901;DHT22;63461;51.416;6.758;2023-04-12T14:30:32;11.60;99.90
74901;DHT22;63461;51.416;6.758;2023-04-12T14:33:00;11.80;99.90
74901;DHT22;63461;51.416;6.758;2023-04-12T14:35:26;11.80;99.90
74901;DHT22;63461;51.416;6.758;2023-04-12T14:37:54;11.80;99.90
74901;DHT22;63461;51.416;6.758;2023-04-12T14:40:20;11.70;99.90
74901;DHT22;63461;51.416;6.758;2023-04-12T14:42:46;11.80;99.90
74901;DHT22;63461;51.416;6.758;2023-04-12T14:45:12;12.00;99.90
74901;DHT22;63461;51.416;6.758;2023-04-12T14:47:39;12.10;99.90
74901;DHT22;63461;51.416;6.758;2023-04-12T14:50:06;12.30;99.90
74901;DHT22;63461;51.416;6.758;2023-04-12T14:52:32;12.10;99.90
74901;DHT22;63461;51.416;6.758;2023-04-12T14:54:58;12.10;99.90
74901;DHT22;63461;51.416;6.758;2023-04-12T14:57:25;12.00;99.90
74901;DHT22;63461;51.416;6.758;2023-04-12T14:59:51;11.70;99.90
74901;DHT22;63461;51.416;6.758;2023-04-12T15:02:17;11.50;99.90
74901;DHT22;63461;51.416;6.758;2023-04-12T15:04:47;11.60;99.90
74901;DHT22;63461;51.416;6.758;2023-04-12T15:07:14;11.80;99.90
74901;DHT22;63461;51.416;6.758;2023-04-12T15:09:43;11.50;99.90
74901;DHT22;63461;51.416;6.758;2023-04-12T15:12:10;11.40;99.90
74901;DHT22;63461;51.416;6.758;2023-04-12T15:14:36;11.20;99.90
74901;DHT22;63461;51.416;6.758;2023-04-12T15:17:02;11.00;99.90
74901;DHT22;63461;51.416;6.758;2023-04-12T15:19:29;11.20;99.90
74901;DHT22;63461;51.416;6.758;2023-04-12T15:21:55;11.10;99.90
74901;DHT22;63461;51.416;6.758;2023-04-12T15:24:24;11.10;99.90
74901;DHT22;63461;51.416;6.758;2023-04-12T15:26:54;11.50;99.90
74901;DHT22;63461;51.416;6.758;2023-04-12T15:29:20;11.30;99.90
74901;DHT22;63461;51.416;6.758;2023-04-12T15:31:46;11.00;99.90
74901;DHT22;63461;51.416;6.758;2023-04-12T15:34:12;11.50;99.90
74901;DHT22;63461;51.416;6.758;2023-04-12T15:36:39;11.60;99.90
74901;DHT22;63461;51.416;6.758;2023-04-12T15:39:09;11.80;99.90
74901;DHT22;63461;51.416;6.758;2023-04-12T15:41:39;11.70;99.90
74901;DHT22;63461;51.416;6.758;2023-04-12T15:44:06;11.60;99.90
74901;DHT22;63461;51.416;6.758;2023-04-12T15:46:32;11.60;99.90
74901;DHT22;63461;51.416;6.758;2023-04-12T15:48:59;11.70;99.90
74901;DHT22;63461;51.416;6.758;2023-04-12T15:51:28;11.50;99.90
74901;DHT22;63461;51.416;6.758;2023-04-12T15:53:54;11.50;99.90
74901;DHT22;63461;51.416;6.758;2023-04-12T15:56:23;11.40;99.90
74901;DHT22;63461;51.416;6.758;2023-04-12T15:58:53;11.40;99.90
74901;DHT22;63461;51.416;6.758;2023-04-12T16:01:22;11.20;99.90
74901;DHT22;63461;51.416;6.758;2023-04-12T16:03:48;11.20;99.90
74901;DHT22;63461;51.416;6.758;2023-04-12T16:06:16;11.10;99.90
74901;DHT22;63461;51.416;6.758;2023-04-12T16:08:50;11.20;99.90
74901;DHT22;63461;51.416;6.758;2023-04-12T16:11:18;11.30;99.90
74901;DHT22;63461;51.416;6.758;2023-04-12T16:13:45;11.30;99.90
74901;DHT22;63461;51.416;6.758;2023-04-12T16:16:14;11.00;99.90
74901;DHT22;63461;51.416;6.758;2023-04-12T16:18:42;11.10;99.90
74901;DHT22;63461;51.416;6.758;2023-04-12T16:21:09;11.00;99.90
74901;DHT22;63461;51.416;6.758;2023-04-12T16:23:36;10.80;99.90
74901;DHT22;63461;51.416;6.758;2023-04-12T16:26:05;10.90;99.90
74901;DHT22;63461;51.416;6.758;2023-04-12T16:28:31;10.80;99.90
74901;DHT22;63461;51.416;6.758;2023-04-12T16:30:57;10.60;99.90
74901;DHT22;63461;51.416;6.758;2023-04-12T16:33:23;10.70;99.90
74901;DHT22;63461;51.416;6.758;2023-04-12T16:35:49;10.80;99.90
74901;DHT22;63461;51.416;6.758;2023-04-12T16:38:15;10.80;99.90
74901;DHT22;63461;51.416;6.758;2023-04-12T16:40:42;11.00;99.90
74901;DHT22;63461;51.416;6.758;2023-04-12T16:43:10;11.10;99.90
74901;DHT22;63461;51.416;6.758;2023-04-12T16:45:36;11.20;99.90
74901;DHT22;63461;51.416;6.758;2023-04-12T16:48:02;10.90;99.90
74901;DHT22;63461;51.416;6.758;2023-04-12T16:50:27;10.90;99.90
74901;DHT22;63461;51.416;6.758;2023-04-12T16:52:54;10.90;99.90
74901;DHT22;63461;51.416;6.758;2023-04-12T16:55:20;10.90;99.90
74901;DHT22;63461;51.416;6.758;2023-04-12T16:57:46;10.60;99.90
74901;DHT22;63461;51.416;6.758;2023-04-12T17:00:17;10.60;99.90
74901;DHT22;63461;51.416;6.758;2023-04-12T17:02:52;10.90;99.90
74901;DHT22;63461;51.416;6.758;2023-04-12T17:05:19;10.90;99.90
74901;DHT22;63461;51.416;6.758;2023-04-12T17:07:46;10.80;99.90
74901;DHT22;63461;51.416;6.758;2023-04-12T17:10:19;10.90;99.90
74901;DHT22;63461;51.416;6.758;2023-04-12T17:12:48;10.80;99.90